Time;durP1;ratioP1;P1;durP2;ratioP2;P2;SDS_P1;SDS_P2;PMS_P1;PMS_P2;Temp;Humidity;BMP_temperature;BMP_pressure;BME280_temperature;BME280_humidity;BME280_pressure;Samples;Min_cycle;Max_cycle;Signal;HPM_P1;HPM_P2
2021/07/04 00:00:00;;;;;;;11.95;7.95;;;15.80;99.90;;;;;;6154767;23;20167;-70
2021/07/04 00:02:27;;;;;;;9.50;7.83;;;15.80;99.90;;;;;;6155147;23;20161;-70
2021/07/04 00:04:54;;;;;;;12.98;8.80;;;15.80;99.90;;;;;;6154545;23;20637;-70
2021/07/04 00:07:21;;;;;;;9.50;7.35;;;15.80;99.90;;;;;;6154952;23;20239;-70
2021/07/04 00:09:47;;;;;;;11.00;7.82;;;15.80;99.90;;;;;;6154476;23;20552;-70
2021/07/04 00:12:16;;;;;;;9.52;6.20;;;15.70;99.90;;;;;;6154846;23;20201;-70
2021/07/04 00:14:42;;;;;;;8.93;7.40;;;15.60;99.90;;;;;;6154676;23;20239;-70
2021/07/04 00:17:09;;;;;;;9.55;7.85;;;15.40;99.90;;;;;;6155146;23;20180;-70
2021/07/04 00:19:36;;;;;;;11.43;7.93;;;15.40;99.90;;;;;;6153781;23;20167;-70
2021/07/04 00:22:03;;;;;;;9.57;8.00;;;15.40;99.90;;;;;;6155263;23;20247;-70
2021/07/04 00:24:30;;;;;;;10.15;7.80;;;15.40;99.90;;;;;;6154533;23;20161;-70
2021/07/04 00:26:57;;;;;;;8.93;7.25;;;15.40;99.90;;;;;;6154776;23;20156;-70
2021/07/04 00:29:25;;;;;;;12.20;7.95;;;15.30;99.90;;;;;;6154275;23;20160;-70
2021/07/04 00:31:52;;;;;;;11.98;8.50;;;15.30;99.90;;;;;;6154003;23;20240;-70
2021/07/04 00:34:19;;;;;;;11.68;8.52;;;15.40;99.90;;;;;;6155567;23;20160;-70
2021/07/04 00:36:46;;;;;;;10.35;8.10;;;15.30;99.90;;;;;;6151775;23;20268;-70
2021/07/04 00:39:12;;;;;;;12.07;9.15;;;15.30;99.90;;;;;;6154697;23;20161;-70
2021/07/04 00:41:39;;;;;;;12.40;8.48;;;15.30;99.90;;;;;;6154432;23;20161;-70
2021/07/04 00:44:06;;;;;;;12.50;8.60;;;15.30;99.90;;;;;;6155078;23;20591;-70
2021/07/04 00:46:35;;;;;;;10.03;7.97;;;15.30;99.90;;;;;;6154362;23;20161;-70
2021/07/04 00:49:02;;;;;;;11.83;8.80;;;15.40;99.90;;;;;;6155094;23;20248;-70
2021/07/04 00:51:29;;;;;;;11.20;8.18;;;15.30;99.90;;;;;;6153544;23;20497;-70
2021/07/04 00:53:56;;;;;;;12.00;8.70;;;15.20;99.90;;;;;;6154701;23;20160;-70
2021/07/04 00:56:23;;;;;;;9.93;8.10;;;14.80;99.90;;;;;;6154535;23;20665;-70
2021/07/04 00:58:49;;;;;;;12.43;8.20;;;14.60;99.90;;;;;;6154732;23;20497;-70
2021/07/04 01:01:16;;;;;;;11.80;9.23;;;14.70;99.90;;;;;;6153749;23;20217;-70
2021/07/04 01:03:44;;;;;;;11.33;8.27;;;14.60;99.90;;;;;;6155122;23;20240;-70
2021/07/04 01:06:11;;;;;;;9.73;8.00;;;14.70;99.90;;;;;;6153988;23;20203;-70
2021/07/04 01:08:38;;;;;;;10.77;8.40;;;14.70;99.90;;;;;;6154433;23;20161;-70
2021/07/04 01:11:06;;;;;;;10.43;8.10;;;14.80;99.90;;;;;;6154096;23;20617;-70
2021/07/04 01:13:33;;;;;;;11.50;8.67;;;14.90;99.90;;;;;;6154694;23;20198;-70
2021/07/04 01:16:00;;;;;;;10.80;8.50;;;15.10;99.90;;;;;;6154741;23;20180;-70
2021/07/04 01:18:27;;;;;;;14.93;8.77;;;14.90;99.90;;;;;;6154358;23;20511;-70
2021/07/04 01:20:58;;;;;;;11.13;8.43;;;14.90;99.90;;;;;;6153762;23;20169;-70
2021/07/04 01:23:26;;;;;;;11.17;8.20;;;14.90;99.90;;;;;;6154298;23;20161;-70
2021/07/04 01:25:55;;;;;;;10.50;8.30;;;14.80;99.90;;;;;;6154601;23;20662;-70
2021/07/04 01:28:22;;;;;;;9.83;7.00;;;14.80;99.90;;;;;;6154387;23;20169;-70
2021/07/04 01:30:52;;;;;;;12.70;6.73;;;14.70;99.90;;;;;;6153878;23;20603;-70
2021/07/04 01:33:19;;;;;;;10.48;7.20;;;14.40;99.90;;;;;;6154102;23;20161;-70
2021/07/04 01:35:46;;;;;;;9.03;6.57;;;14.10;99.90;;;;;;6153715;23;20678;-70
2021/07/04 01:38:13;;;;;;;10.97;7.50;;;14.10;99.90;;;;;;6152371;23;20160;-70
2021/07/04 01:40:42;;;;;;;9.60;7.40;;;14.20;99.90;;;;;;6152211;23;20480;-70
2021/07/04 01:43:09;;;;;;;12.17;8.67;;;14.30;99.90;;;;;;6153154;23;20175;-70
2021/07/04 01:45:38;;;;;;;13.27;8.77;;;14.40;99.90;;;;;;6154298;23;20165;-70
2021/07/04 01:48:05;;;;;;;13.30;8.47;;;14.60;99.90;;;;;;6154489;23;20493;-70
2021/07/04 01:50:35;;;;;;;12.17;8.27;;;14.60;99.90;;;;;;6153482;23;20446;-70
2021/07/04 01:53:02;;;;;;;10.33;8.20;;;14.60;99.90;;;;;;6154617;23;20457;-70
2021/07/04 01:55:28;;;;;;;12.73;8.13;;;14.70;99.90;;;;;;6153756;23;20175;-70
2021/07/04 01:57:57;;;;;;;10.60;8.47;;;14.30;99.90;;;;;;6154349;23;20328;-70
2021/07/04 02:00:26;;;;;;;11.30;8.27;;;14.30;99.90;;;;;;6153144;23;20188;-70
2021/07/04 02:02:55;;;;;;;12.80;8.07;;;14.40;99.90;;;;;;6154280;23;20165;-70
2021/07/04 02:05:22;;;;;;;12.43;7.87;;;14.30;99.90;;;;;;6152367;23;20184;-70
2021/07/04 02:07:49;;;;;;;14.97;8.97;;;14.10;99.90;;;;;;6154102;23;20160;-70
2021/07/04 02:10:20;;;;;;;17.20;9.37;;;14.10;99.90;;;;;;6152330;23;20212;-70
2021/07/04 02:12:48;;;;;;;13.53;7.97;;;14.00;99.90;;;;;;6151585;23;20161;-70
2021/07/04 02:15:18;;;;;;;13.07;7.80;;;13.90;99.90;;;;;;6152348;23;20164;-70
2021/07/04 02:17:45;;;;;;;12.47;7.37;;;13.90;99.90;;;;;;6151879;23;20188;-70
2021/07/04 02:20:32;;;;;;;17.57;8.47;;;13.90;99.90;;;;;;6153973;23;20171;-70
2021/07/04 02:22:59;;;;;;;10.90;7.57;;;14.10;99.90;;;;;;6155085;23;20165;-71
2021/07/04 02:25:26;;;;;;;10.10;8.07;;;14.00;99.90;;;;;;6156006;23;20160;-71
2021/07/04 02:27:53;;;;;;;10.47;8.53;;;14.10;99.90;;;;;;6156077;23;20161;-71
2021/07/04 02:30:22;;;;;;;11.93;9.03;;;14.20;99.90;;;;;;6154988;23;20172;-71
2021/07/04 02:32:49;;;;;;;11.77;9.17;;;14.30;99.90;;;;;;6155779;23;20164;-71
2021/07/04 02:35:16;;;;;;;12.17;9.13;;;14.40;99.90;;;;;;6155609;23;20473;-71
2021/07/04 02:37:43;;;;;;;13.03;9.47;;;14.40;99.90;;;;;;6154566;23;20181;-71
2021/07/04 02:40:10;;;;;;;14.03;9.40;;;14.40;99.90;;;;;;6153364;23;20161;-71
2021/07/04 02:42:37;;;;;;;13.53;9.57;;;14.40;99.90;;;;;;6155718;23;20161;-71
2021/07/04 02:45:06;;;;;;;12.40;9.27;;;14.30;99.90;;;;;;6156031;23;20221;-71
2021/07/04 02:47:34;;;;;;;14.50;10.10;;;14.40;99.90;;;;;;6156561;23;20379;-71
2021/07/04 02:50:01;;;;;;;11.23;8.73;;;14.40;99.90;;;;;;6155079;23;20176;-71
2021/07/04 02:52:28;;;;;;;13.23;9.17;;;14.40;99.90;;;;;;6156408;23;20167;-71
2021/07/04 02:54:55;;;;;;;11.40;8.67;;;14.40;99.90;;;;;;6156357;23;20169;-71
2021/07/04 02:57:21;;;;;;;11.70;7.77;;;14.30;99.90;;;;;;6156013;23;20180;-71
2021/07/04 02:59:48;;;;;;;11.43;8.93;;;14.40;99.90;;;;;;6155277;23;20199;-71
2021/07/04 03:02:15;;;;;;;12.07;9.03;;;14.20;99.90;;;;;;6155623;23;20522;-71
2021/07/04 03:04:43;;;;;;;16.10;9.50;;;14.20;99.90;;;;;;6155591;23;20192;-71
2021/07/04 03:07:10;;;;;;;12.37;8.80;;;14.20;99.90;;;;;;6155693;23;20160;-71
2021/07/04 03:09:37;;;;;;;13.37;9.30;;;14.20;99.90;;;;;;6154617;23;20211;-71
2021/07/04 03:12:05;;;;;;;12.73;9.47;;;14.00;99.90;;;;;;6155682;23;20165;-71
2021/07/04 03:14:32;;;;;;;15.90;9.13;;;14.20;99.90;;;;;;6156385;23;20200;-71
2021/07/04 03:17:00;;;;;;;15.63;8.87;;;14.20;99.90;;;;;;6155212;23;20185;-71
2021/07/04 03:19:28;;;;;;;12.50;8.77;;;14.10;99.90;;;;;;6155842;23;20160;-71
2021/07/04 03:21:56;;;;;;;16.67;9.33;;;13.90;99.90;;;;;;6155271;23;20172;-72
2021/07/04 03:24:23;;;;;;;18.30;8.70;;;13.90;99.90;;;;;;6156203;23;20160;-72
2021/07/04 03:26:51;;;;;;;14.80;8.40;;;14.00;99.90;;;;;;6155633;23;20616;-71
2021/07/04 03:29:17;;;;;;;15.27;8.33;;;14.20;99.90;;;;;;6154673;23;20239;-71
2021/07/04 03:31:44;;;;;;;13.43;8.63;;;14.20;99.90;;;;;;6155138;23;20165;-71
2021/07/04 03:34:11;;;;;;;17.33;9.40;;;14.10;99.90;;;;;;6155038;23;20169;-71
2021/07/04 03:36:38;;;;;;;12.83;8.90;;;14.30;99.90;;;;;;6154825;23;20185;-71
2021/07/04 03:39:06;;;;;;;18.33;10.10;;;14.40;99.90;;;;;;6154677;23;20696;-71
2021/07/04 03:41:33;;;;;;;14.93;9.53;;;14.40;99.90;;;;;;6154513;23;20160;-71
2021/07/04 03:44:00;;;;;;;12.03;9.40;;;14.50;99.90;;;;;;6155623;23;20642;-71
2021/07/04 03:46:27;;;;;;;13.57;9.27;;;14.70;99.90;;;;;;6155284;23;20522;-71
2021/07/04 03:48:54;;;;;;;12.83;8.43;;;14.70;99.90;;;;;;6155219;23;20167;-71
2021/07/04 03:51:21;;;;;;;18.53;7.80;;;14.90;99.90;;;;;;6154597;23;20160;-71
2021/07/04 03:53:49;;;;;;;15.33;8.47;;;14.60;99.90;;;;;;6152456;23;20165;-71
2021/07/04 03:56:17;;;;;;;14.63;7.70;;;14.30;99.90;;;;;;6152810;23;20168;-71
2021/07/04 03:58:44;;;;;;;11.73;7.60;;;14.70;99.90;;;;;;6152412;23;20345;-72
2021/07/04 04:01:18;;;;;;;14.93;8.27;;;14.90;99.90;;;;;;6150091;23;20161;-72
2021/07/04 04:03:45;;;;;;;15.93;8.87;;;15.00;99.90;;;;;;6152672;23;20188;-72
2021/07/04 04:06:12;;;;;;;14.90;8.03;;;15.10;99.90;;;;;;6185234;22;20207;-72
2021/07/04 04:08:39;;;;;;;14.47;8.37;;;15.40;99.90;;;;;;6211687;23;20656;-72
2021/07/04 04:11:06;;;;;;;14.27;8.53;;;15.40;99.90;;;;;;6210835;23;20668;-72
2021/07/04 04:13:34;;;;;;;13.17;8.17;;;16.10;99.90;;;;;;6211283;23;20173;-72
2021/07/04 04:16:02;;;;;;;9.50;7.97;;;17.10;99.90;;;;;;6210016;23;20336;-72
2021/07/04 04:18:28;;;;;;;12.30;8.13;;;17.80;99.90;;;;;;6211454;23;20379;-72
2021/07/04 04:20:56;;;;;;;13.45;8.30;;;18.10;99.90;;;;;;6210085;23;20186;-72
2021/07/04 04:23:23;;;;;;;12.82;8.70;;;18.20;99.90;;;;;;6211645;23;20163;-72
2021/07/04 04:25:50;;;;;;;11.07;7.75;;;17.80;99.90;;;;;;6210712;23;20159;-72
2021/07/04 04:28:17;;;;;;;10.45;8.05;;;17.50;99.90;;;;;;6210953;23;20239;-72
2021/07/04 04:30:45;;;;;;;12.65;8.23;;;17.00;99.90;;;;;;6210737;23;20160;-72
2021/07/04 04:33:13;;;;;;;13.15;7.40;;;16.60;99.90;;;;;;6211598;23;20616;-72
2021/07/04 04:35:40;;;;;;;13.82;8.18;;;16.30;99.90;;;;;;6211507;23;20164;-72
2021/07/04 04:38:07;;;;;;;9.90;8.20;;;16.20;99.90;;;;;;6211032;23;20198;-72
2021/07/04 04:40:35;;;;;;;13.23;8.88;;;16.30;99.90;;;;;;6207379;23;20618;-72
2021/07/04 04:43:02;;;;;;;11.02;8.50;;;16.50;99.90;;;;;;6211481;23;20169;-72
2021/07/04 04:45:29;;;;;;;13.68;8.70;;;16.50;99.90;;;;;;6211015;23;20170;-72
2021/07/04 04:47:57;;;;;;;11.88;8.05;;;16.40;99.90;;;;;;6211543;23;20561;-72
2021/07/04 04:50:24;;;;;;;12.10;8.82;;;16.40;99.90;;;;;;6209204;23;20170;-72
2021/07/04 04:52:51;;;;;;;9.98;8.25;;;16.30;99.90;;;;;;6210531;23;20163;-72
2021/07/04 04:55:18;;;;;;;12.50;8.43;;;16.30;99.90;;;;;;6210261;23;20651;-72
2021/07/04 04:57:45;;;;;;;11.05;8.60;;;16.40;99.90;;;;;;6211277;23;20506;-72
2021/07/04 05:00:14;;;;;;;9.95;8.38;;;16.30;99.90;;;;;;6210968;23;20466;-72
2021/07/04 05:02:42;;;;;;;14.80;8.57;;;16.10;99.90;;;;;;6211134;23;20169;-72
2021/07/04 05:05:10;;;;;;;12.25;7.95;;;16.20;99.90;;;;;;6211112;23;20164;-72
2021/07/04 05:07:37;;;;;;;14.13;8.55;;;16.30;99.90;;;;;;6211286;23;20164;-72
2021/07/04 05:10:05;;;;;;;11.32;7.60;;;16.50;99.90;;;;;;6210657;23;20267;-72
2021/07/04 05:12:32;;;;;;;12.52;8.55;;;16.50;99.90;;;;;;6211862;23;20163;-72
2021/07/04 05:14:59;;;;;;;17.80;11.60;;;16.60;99.90;;;;;;6211416;23;20163;-72
2021/07/04 05:17:26;;;;;;;12.15;9.73;;;16.60;99.90;;;;;;6211015;23;20633;-72
2021/07/04 05:19:53;;;;;;;11.35;9.32;;;16.50;99.90;;;;;;6210718;23;20545;-72
2021/07/04 05:22:21;;;;;;;11.35;9.55;;;16.50;99.90;;;;;;6210762;23;20169;-72
2021/07/04 05:24:48;;;;;;;12.32;8.63;;;16.60;99.90;;;;;;6211196;23;20167;-72
2021/07/04 05:27:15;;;;;;;10.60;8.23;;;16.70;99.90;;;;;;6211137;23;20169;-72
2021/07/04 05:29:41;;;;;;;11.70;9.55;;;16.70;99.90;;;;;;6210069;23;20163;-72
2021/07/04 05:32:08;;;;;;;18.05;11.57;;;16.80;99.90;;;;;;6211357;23;20250;-72
2021/07/04 05:34:35;;;;;;;12.52;8.80;;;16.80;99.90;;;;;;6212581;23;20594;-72
2021/07/04 05:37:02;;;;;;;13.07;8.57;;;16.70;99.90;;;;;;6213833;23;20183;-72
2021/07/04 05:39:32;;;;;;;13.25;8.93;;;16.50;99.90;;;;;;6214501;23;20159;-73
2021/07/04 05:41:58;;;;;;;13.25;9.48;;;16.60;99.90;;;;;;6214161;23;20541;-72
2021/07/04 05:44:25;;;;;;;14.18;9.38;;;16.60;99.90;;;;;;6213968;23;20174;-72
2021/07/04 05:46:52;;;;;;;14.40;10.23;;;16.40;99.90;;;;;;6213875;23;20177;-72
2021/07/04 05:49:19;;;;;;;12.80;9.25;;;16.50;99.90;;;;;;6214043;23;20245;-72
2021/07/04 05:51:46;;;;;;;10.55;8.70;;;16.50;99.90;;;;;;6212704;23;20166;-72
2021/07/04 05:54:13;;;;;;;15.18;9.98;;;16.50;99.90;;;;;;6214648;23;20159;-72
2021/07/04 05:56:42;;;;;;;11.90;9.50;;;16.60;99.90;;;;;;6214109;23;20194;-72
2021/07/04 05:59:09;;;;;;;12.57;10.10;;;16.60;99.90;;;;;;6214180;23;20570;-72
2021/07/04 06:01:35;;;;;;;12.77;9.48;;;16.70;99.90;;;;;;6212930;23;20159;-72
2021/07/04 06:04:03;;;;;;;13.45;9.07;;;16.70;99.90;;;;;;6214387;23;20593;-72
2021/07/04 06:06:30;;;;;;;11.60;8.32;;;16.70;99.90;;;;;;6213906;23;20519;-72
2021/07/04 06:08:56;;;;;;;12.50;8.88;;;16.70;99.90;;;;;;6213404;23;20169;-72
2021/07/04 06:11:23;;;;;;;11.85;8.68;;;16.70;99.90;;;;;;6213446;23;20160;-73
2021/07/04 06:13:52;;;;;;;10.40;8.60;;;16.70;99.90;;;;;;6213491;23;20242;-72
2021/07/04 06:16:18;;;;;;;12.10;8.77;;;16.80;99.90;;;;;;6210156;23;20163;-72
2021/07/04 06:18:45;;;;;;;12.25;9.10;;;16.80;99.90;;;;;;6211062;23;20187;-72
2021/07/04 06:21:13;;;;;;;11.43;8.52;;;16.80;99.90;;;;;;6207714;23;20178;-72
2021/07/04 06:23:40;;;;;;;13.05;9.90;;;16.80;99.90;;;;;;6210586;23;20186;-72
2021/07/04 06:26:06;;;;;;;16.15;9.18;;;16.80;99.90;;;;;;6211091;23;20488;-72
2021/07/04 06:28:33;;;;;;;12.38;8.55;;;16.60;99.90;;;;;;6209704;23;20191;-72
2021/07/04 06:31:02;;;;;;;14.90;9.85;;;16.70;99.90;;;;;;6210515;23;20163;-72
2021/07/04 06:33:29;;;;;;;10.88;8.98;;;16.90;99.90;;;;;;6210442;23;20168;-72
2021/07/04 06:35:55;;;;;;;11.45;9.30;;;17.00;99.90;;;;;;6211315;23;20534;-72
2021/07/04 06:38:22;;;;;;;12.23;8.05;;;17.10;99.90;;;;;;6210329;23;20183;-72
2021/07/04 06:40:49;;;;;;;11.05;8.82;;;17.20;99.90;;;;;;6210126;23;20164;-72
2021/07/04 06:43:16;;;;;;;11.35;8.35;;;17.20;99.90;;;;;;6211294;23;20163;-72
2021/07/04 06:45:43;;;;;;;11.88;9.50;;;17.30;99.90;;;;;;6210934;23;20164;-72
2021/07/04 06:48:11;;;;;;;12.52;9.55;;;17.40;99.90;;;;;;6210569;23;20161;-72
2021/07/04 06:50:38;;;;;;;14.20;9.88;;;17.50;99.90;;;;;;6209700;23;20605;-72
2021/07/04 06:53:04;;;;;;;12.90;9.40;;;17.60;99.90;;;;;;6210311;23;20223;-72
2021/07/04 06:55:31;;;;;;;11.75;9.32;;;17.80;99.90;;;;;;6210311;23;20163;-72
2021/07/04 06:57:58;;;;;;;11.57;9.45;;;17.80;99.90;;;;;;6210960;23;20751;-72
2021/07/04 07:00:27;;;;;;;11.75;8.75;;;17.70;99.90;;;;;;6209628;23;20164;-72
2021/07/04 07:02:54;;;;;;;11.77;9.32;;;18.10;99.90;;;;;;6210299;23;20179;-72
2021/07/04 07:05:23;;;;;;;10.27;8.75;;;18.30;99.90;;;;;;6211455;23;20183;-72
2021/07/04 07:07:49;;;;;;;11.75;8.63;;;18.50;99.90;;;;;;6213263;23;20211;-72
2021/07/04 07:10:16;;;;;;;11.73;8.52;;;18.70;99.90;;;;;;6211248;23;20206;-72
2021/07/04 07:12:44;;;;;;;11.65;8.70;;;18.80;99.90;;;;;;6212502;23;20490;-72
2021/07/04 07:15:12;;;;;;;11.98;8.40;;;18.90;99.90;;;;;;6212065;23;20179;-72
2021/07/04 07:17:40;;;;;;;9.68;8.40;;;19.20;99.90;;;;;;6212286;23;20638;-72
2021/07/04 07:20:09;;;;;;;11.50;9.07;;;19.40;99.90;;;;;;6211736;23;20511;-72
2021/07/04 07:22:38;;;;;;;13.38;9.30;;;19.40;99.90;;;;;;6209636;23;20175;-72
2021/07/04 07:25:05;;;;;;;12.95;9.20;;;19.70;99.90;;;;;;6212668;23;20557;-72
2021/07/04 07:27:32;;;;;;;11.55;9.02;;;19.80;99.90;;;;;;6211819;23;20455;-73
2021/07/04 07:29:59;;;;;;;11.45;8.48;;;20.00;99.90;;;;;;6211905;23;20163;-72
2021/07/04 07:32:27;;;;;;;10.93;8.88;;;20.20;99.90;;;;;;6211690;23;20494;-72
2021/07/04 07:34:54;;;;;;;10.15;8.73;;;20.20;99.90;;;;;;6212383;23;20197;-72
2021/07/04 07:37:22;;;;;;;11.25;8.40;;;20.60;99.90;;;;;;6212125;23;20171;-72
2021/07/04 07:39:51;;;;;;;12.10;8.43;;;20.70;99.90;;;;;;6211530;23;20167;-72
2021/07/04 07:42:17;;;;;;;12.90;8.48;;;21.00;99.90;;;;;;6211860;23;20502;-72
2021/07/04 07:44:44;;;;;;;10.38;8.07;;;21.20;99.90;;;;;;6211853;23;20167;-73
2021/07/04 07:47:12;;;;;;;10.50;9.00;;;21.20;99.90;;;;;;6212370;23;20169;-72
2021/07/04 07:49:38;;;;;;;10.23;8.40;;;21.10;99.90;;;;;;6211435;23;20250;-73
2021/07/04 07:52:06;;;;;;;12.77;8.93;;;21.10;99.90;;;;;;6211779;23;20185;-72
2021/07/04 07:54:33;;;;;;;10.27;8.45;;;21.10;99.90;;;;;;6212422;23;20164;-72
2021/07/04 07:57:02;;;;;;;10.95;8.32;;;21.10;99.90;;;;;;6213218;23;20589;-72
2021/07/04 07:59:32;;;;;;;10.70;8.90;;;21.00;99.90;;;;;;6214868;23;20551;-72
2021/07/04 08:01:59;;;;;;;10.55;8.75;;;21.00;99.90;;;;;;6215177;23;20246;-72
2021/07/04 08:04:27;;;;;;;17.17;9.38;;;21.00;99.90;;;;;;6214681;23;20159;-72
2021/07/04 08:06:54;;;;;;;9.82;8.57;;;21.10;99.90;;;;;;6215329;23;20183;-73
2021/07/04 08:09:21;;;;;;;12.25;9.35;;;21.20;99.90;;;;;;6214750;23;20190;-73
2021/07/04 08:11:48;;;;;;;11.48;9.23;;;21.40;99.90;;;;;;6214518;23;20247;-72
2021/07/04 08:14:17;;;;;;;9.80;8.70;;;21.50;99.90;;;;;;6214754;23;20164;-72
2021/07/04 08:16:43;;;;;;;13.65;8.95;;;21.60;99.90;;;;;;6214810;23;20166;-72
2021/07/04 08:19:10;;;;;;;10.40;8.93;;;21.60;99.90;;;;;;6214135;23;20184;-72
2021/07/04 08:21:37;;;;;;;11.13;9.45;;;21.60;99.90;;;;;;6213968;23;20166;-73
2021/07/04 08:24:05;;;;;;;12.23;9.93;;;21.60;99.90;;;;;;6212635;23;20238;-72
2021/07/04 08:26:32;;;;;;;11.43;9.05;;;21.80;99.90;;;;;;6212295;23;20163;-72
2021/07/04 08:29:00;;;;;;;11.43;9.88;;;21.90;99.90;;;;;;6212063;23;20170;-72
2021/07/04 08:31:28;;;;;;;13.48;9.30;;;22.00;99.90;;;;;;6211745;23;20170;-72
2021/07/04 08:33:55;;;;;;;12.82;9.70;;;21.90;99.90;;;;;;6212551;23;20174;-72
2021/07/04 08:36:25;;;;;;;12.35;9.32;;;21.80;99.90;;;;;;6211601;23;20166;-72
2021/07/04 08:38:52;;;;;;;10.68;9.00;;;21.90;99.90;;;;;;6211979;23;20187;-72
2021/07/04 08:41:19;;;;;;;10.85;9.45;;;22.00;99.90;;;;;;6211534;23;20239;-71
2021/07/04 08:43:46;;;;;;;12.05;9.23;;;22.00;99.90;;;;;;6213083;23;20163;-71
2021/07/04 08:46:13;;;;;;;11.43;9.82;;;21.80;99.90;;;;;;6211530;23;20222;-71
2021/07/04 08:48:42;;;;;;;10.00;8.73;;;21.90;99.90;;;;;;6209153;23;20186;-73
2021/07/04 08:51:11;;;;;;;11.35;9.50;;;22.00;99.90;;;;;;6210494;23;20174;-71
2021/07/04 08:53:38;;;;;;;11.63;9.10;;;22.30;99.90;;;;;;6211099;23;20238;-71
2021/07/04 08:56:07;;;;;;;10.85;8.40;;;22.50;99.90;;;;;;6211874;23;20206;-71
2021/07/04 08:58:34;;;;;;;10.95;9.30;;;22.40;99.90;;;;;;6211378;23;20183;-71
2021/07/04 09:01:13;;;;;;;10.40;8.82;;;22.50;99.90;;;;;;6211397;23;20164;-71
2021/07/04 09:03:44;;;;;;;11.23;9.45;;;22.80;99.90;;;;;;6211109;23;20210;-71
2021/07/04 09:06:11;;;;;;;10.23;8.32;;;23.00;99.90;;;;;;6210930;23;20233;-71
2021/07/04 09:08:38;;;;;;;10.30;8.60;;;23.20;99.90;;;;;;6211231;23;20174;-71
2021/07/04 09:11:10;;;;;;;12.07;8.95;;;23.80;99.90;;;;;;6210162;23;20203;-71
2021/07/04 09:13:37;;;;;;;11.23;8.57;;;24.30;99.90;;;;;;6211525;23;20167;-71
2021/07/04 09:16:04;;;;;;;11.15;8.52;;;24.00;99.90;;;;;;6211692;23;20242;-71
2021/07/04 09:18:31;;;;;;;11.73;9.05;;;24.30;99.90;;;;;;6211341;23;20652;-71
2021/07/04 09:21:00;;;;;;;10.95;8.88;;;24.10;99.90;;;;;;6210380;23;20167;-71
2021/07/04 09:23:35;;;;;;;10.75;8.55;;;24.10;99.90;;;;;;6210300;23;20638;-71
2021/07/04 09:26:02;;;;;;;11.10;8.60;;;23.90;99.90;;;;;;6211085;23;20166;-71
2021/07/04 09:28:29;;;;;;;10.20;8.38;;;23.60;99.90;;;;;;6210688;23;20162;-71
2021/07/04 09:30:57;;;;;;;10.18;8.95;;;23.60;99.90;;;;;;6210676;23;20163;-71
2021/07/04 09:33:26;;;;;;;11.55;8.68;;;23.90;99.90;;;;;;6211255;23;20234;-71
2021/07/04 09:35:56;;;;;;;10.60;8.35;;;23.90;99.90;;;;;;6211047;23;20163;-71
2021/07/04 09:38:26;;;;;;;9.63;8.20;;;23.70;99.90;;;;;;6210679;23;20663;-71
2021/07/04 09:40:53;;;;;;;8.98;8.02;;;23.90;99.90;;;;;;6210473;23;20163;-71
2021/07/04 09:43:20;;;;;;;8.93;8.05;;;24.50;99.90;;;;;;6211459;23;20163;-71
2021/07/04 09:45:53;;;;;;;9.18;8.02;;;24.80;99.90;;;;;;6209258;23;20163;-71
2021/07/04 09:48:23;;;;;;;10.43;8.60;;;25.70;99.90;;;;;;6206437;23;20705;-71
2021/07/04 09:50:52;;;;;;;9.27;7.60;;;25.70;99.90;;;;;;6209617;23;20167;-71
2021/07/04 09:53:21;;;;;;;8.63;7.75;;;25.40;99.90;;;;;;6210476;23;20168;-72
2021/07/04 09:55:51;;;;;;;8.02;7.22;;;26.00;99.90;;;;;;6210800;23;20165;-72
2021/07/04 09:58:21;;;;;;;9.18;7.85;;;26.30;99.90;;;;;;6210894;23;20202;-71
2021/07/04 10:00:48;;;;;;;7.85;7.05;;;26.00;99.90;;;;;;6209468;23;20190;-72
2021/07/04 10:03:19;;;;;;;9.18;7.40;;;26.10;99.90;;;;;;6211095;23;20163;-71
2021/07/04 10:06:01;;;;;;;8.90;8.00;;;25.90;99.90;;;;;;6206308;22;20679;-68
2021/07/04 10:08:31;;;;;;;8.02;6.85;;;26.00;99.90;;;;;;6180823;23;20235;-71
2021/07/04 10:11:05;;;;;;;10.07;7.68;;;25.90;99.90;;;;;;6181016;23;20565;-70
2021/07/04 10:13:36;;;;;;;8.02;7.05;;;26.40;99.90;;;;;;6180931;23;20167;-71
2021/07/04 10:16:03;;;;;;;8.27;7.05;;;26.40;99.90;;;;;;6181308;23;20251;-70
2021/07/04 10:18:30;;;;;;;7.60;6.85;;;25.90;99.90;;;;;;6181601;23;20210;-70
2021/07/04 10:20:57;;;;;;;7.68;6.88;;;26.30;99.90;;;;;;6180734;23;20159;-71
2021/07/04 10:23:26;;;;;;;8.18;6.50;;;26.40;99.90;;;;;;6180954;23;20203;-71
2021/07/04 10:25:54;;;;;;;10.75;6.00;;;26.10;99.90;;;;;;6180670;23;20164;-71
2021/07/04 10:28:28;;;;;;;9.80;6.35;;;26.20;99.90;;;;;;6180866;23;20160;-71
2021/07/04 10:30:56;;;;;;;7.72;6.45;;;26.30;99.90;;;;;;6180226;23;20164;-71
2021/07/04 10:33:24;;;;;;;7.93;6.38;;;26.10;99.90;;;;;;6181336;23;20164;-71
2021/07/04 10:36:08;;;;;;;6.85;5.93;;;26.00;99.90;;;;;;6182257;23;20160;-71
2021/07/04 10:38:44;;;;;;;8.10;5.68;;;26.10;99.90;;;;;;6184316;23;20188;-71
2021/07/04 10:41:13;;;;;;;6.55;5.65;;;26.60;99.90;;;;;;6185156;23;20457;-71
2021/07/04 10:43:53;;;;;;;6.90;6.20;;;26.40;99.90;;;;;;6186159;23;20164;-71
2021/07/04 10:46:41;;;;;;;6.63;5.85;;;26.20;99.90;;;;;;6186167;23;20159;-71
2021/07/04 10:49:11;;;;;;;8.20;6.10;;;26.40;99.90;;;;;;6185454;23;20232;-71
2021/07/04 10:51:54;;;;;;;7.82;5.40;;;26.30;99.90;;;;;;6184952;23;20164;-74
2021/07/04 10:54:50;;;;;;;6.82;5.75;;;26.80;99.90;;;;;;6185694;23;20172;-70
2021/07/04 10:57:21;;;;;;;7.75;6.00;;;27.00;99.90;;;;;;6185320;23;20160;-70
2021/07/04 11:00:26;;;;;;;8.45;6.68;;;26.60;99.90;;;;;;6184466;23;20215;-70
2021/07/04 11:02:56;;;;;;;7.80;6.70;;;26.70;99.90;;;;;;6185181;23;20453;-70
2021/07/04 11:05:46;;;;;;;8.27;5.88;;;26.40;99.90;;;;;;6184759;23;20175;-70
2021/07/04 11:08:14;;;;;;;7.40;5.97;;;26.60;99.90;;;;;;6185348;23;20459;-71
2021/07/04 11:10:56;;;;;;;8.85;6.55;;;26.30;99.90;;;;;;6184339;23;20174;-70
2021/07/04 11:13:45;;;;;;;8.18;6.45;;;26.60;99.90;;;;;;6184830;23;20163;-70
2021/07/04 11:16:26;;;;;;;7.57;6.65;;;26.30;99.90;;;;;;6172266;23;20179;-69
2021/07/04 11:19:08;;;;;;;7.50;6.70;;;26.60;99.90;;;;;;6184061;23;20228;-69
2021/07/04 11:21:50;;;;;;;7.57;6.30;;;26.90;99.90;;;;;;6183827;23;20170;-69
2021/07/04 11:24:19;;;;;;;8.48;7.00;;;26.90;99.90;;;;;;6183791;23;20196;-70
2021/07/04 11:27:20;;;;;;;7.75;6.40;;;26.70;99.90;;;;;;6184271;23;20635;-70
2021/07/04 11:30:31;;;;;;;7.30;6.38;;;26.50;99.90;;;;;;6184776;23;20178;-69
2021/07/04 11:33:30;;;;;;;7.93;6.40;;;26.60;99.90;;;;;;6183847;23;20167;-69
2021/07/04 11:36:01;;;;;;;9.40;7.30;;;27.10;99.90;;;;;;6184693;23;20248;-69
2021/07/04 11:38:30;;;;;;;8.00;7.20;;;27.10;99.90;;;;;;6185715;23;20166;-70
2021/07/04 11:40:57;;;;;;;7.22;6.45;;;26.90;99.90;;;;;;6185144;23;20653;-73
2021/07/04 11:43:35;;;;;;;8.65;6.55;;;27.00;99.90;;;;;;6185553;23;20167;-73
2021/07/04 11:46:08;;;;;;;8.68;6.25;;;27.50;99.90;;;;;;6182898;23;20164;-73
2021/07/04 11:49:05;;;;;;;10.80;6.82;;;27.00;99.90;;;;;;6182673;23;20196;-73
2021/07/04 11:51:48;;;;;;;8.75;6.40;;;26.70;99.90;;;;;;6183337;23;20462;-71
2021/07/04 11:54:17;;;;;;;8.25;6.90;;;26.40;99.90;;;;;;6184713;23;20171;-73
2021/07/04 11:56:47;;;;;;;9.48;7.20;;;26.70;99.90;;;;;;6184305;23;20164;-73
2021/07/04 11:59:20;;;;;;;7.35;6.63;;;27.00;99.90;;;;;;6184289;23;20188;-73
2021/07/04 12:01:51;;;;;;;7.70;6.72;;;26.80;99.90;;;;;;6183903;23;20172;-73
2021/07/04 12:04:28;;;;;;;7.20;6.45;;;27.10;99.90;;;;;;6184359;23;20185;-73
2021/07/04 12:07:00;;;;;;;7.00;6.30;;;26.70;99.90;;;;;;6184632;23;20198;-73
2021/07/04 12:09:38;;;;;;;9.95;6.47;;;26.80;99.90;;;;;;6181495;23;20235;-74
2021/07/04 12:12:07;;;;;;;7.97;6.55;;;27.20;99.90;;;;;;6181977;23;20184;-74
2021/07/04 12:14:36;;;;;;;8.27;6.85;;;27.20;99.90;;;;;;6183334;23;20163;-73
2021/07/04 12:17:24;;;;;;;7.18;6.47;;;27.20;99.90;;;;;;6183860;23;20250;-73
2021/07/04 12:19:57;;;;;;;7.05;6.18;;;27.50;99.90;;;;;;6183513;23;20230;-73
2021/07/04 12:22:27;;;;;;;7.25;6.00;;;27.70;99.90;;;;;;6183509;23;20187;-73
2021/07/04 12:24:54;;;;;;;8.20;6.70;;;27.40;99.90;;;;;;6184462;23;20164;-73
2021/07/04 12:27:34;;;;;;;10.25;6.28;;;27.50;99.90;;;;;;6184209;23;20167;-73
2021/07/04 12:30:06;;;;;;;7.22;6.07;;;27.80;99.90;;;;;;6183519;23;20198;-73
2021/07/04 12:32:38;;;;;;;6.72;6.03;;;27.50;99.90;;;;;;6183615;23;20430;-74
2021/07/04 12:35:06;;;;;;;6.82;6.05;;;27.80;99.90;;;;;;6181130;23;20433;-73
2021/07/04 12:37:35;;;;;;;6.47;5.88;;;27.30;99.90;;;;;;6183478;23;20164;-73
2021/07/04 12:40:11;;;;;;;7.78;6.07;;;27.40;99.90;;;;;;6183437;23;20690;-73
2021/07/04 12:42:39;;;;;;;6.53;5.93;;;27.30;99.90;;;;;;6183989;23;20234;-73
2021/07/04 12:45:08;;;;;;;8.05;6.05;;;27.30;99.90;;;;;;6182440;23;20246;-74
2021/07/04 12:47:35;;;;;;;7.70;6.18;;;27.40;99.90;;;;;;6184035;23;20738;-73
2021/07/04 12:50:08;;;;;;;10.88;6.50;;;27.10;99.90;;;;;;6182036;23;20156;-73